Time;durP1;ratioP1;P1;durP2;ratioP2;P2;SDS_P1;SDS_P2;PMS_P1;PMS_P2;Temp;Humidity;BMP_temperature;BMP_pressure;BME280_temperature;BME280_humidity;BME280_pressure;Samples;Min_cycle;Max_cycle;Signal;HPM_P1;HPM_P2
2023/06/05 00:01:07;;;;;;;13.40;12.80;;;15.30;99.90;;;;;;5037467;28;20551;-67
2023/06/05 00:03:34;;;;;;;12.00;11.60;;;15.40;99.90;;;;;;5043733;28;20915;-66
2023/06/05 00:06:01;;;;;;;12.47;11.87;;;15.30;99.90;;;;;;5039441;28;20464;-67
2023/06/05 00:08:28;;;;;;;17.13;13.57;;;15.30;99.90;;;;;;5047851;28;20724;-66
2023/06/05 00:10:54;;;;;;;11.97;11.57;;;15.30;99.90;;;;;;5041779;28;20471;-67
2023/06/05 00:13:22;;;;;;;12.10;11.63;;;15.30;99.90;;;;;;5049507;28;20459;-67
2023/06/05 00:15:51;;;;;;;12.90;12.40;;;15.30;99.90;;;;;;5038400;28;20501;-67
2023/06/05 00:18:18;;;;;;;12.30;11.80;;;15.30;99.90;;;;;;5046251;28;20456;-67
2023/06/05 00:20:47;;;;;;;12.07;11.60;;;15.30;99.90;;;;;;5044583;28;20955;-67
2023/06/05 00:23:14;;;;;;;13.23;12.63;;;15.30;99.90;;;;;;5051175;28;20505;-67
2023/06/05 00:25:41;;;;;;;11.70;11.30;;;15.30;99.90;;;;;;5043183;28;20548;-67
2023/06/05 00:28:09;;;;;;;12.33;11.83;;;15.30;99.90;;;;;;5049228;28;20927;-67
2023/06/05 00:30:37;;;;;;;13.03;12.50;;;15.20;99.90;;;;;;5042609;28;20460;-68
2023/06/05 00:33:06;;;;;;;11.63;11.20;;;15.10;99.90;;;;;;5037495;28;20489;-67
2023/06/05 00:35:33;;;;;;;12.40;11.90;;;15.20;99.90;;;;;;5037507;28;20459;-67
2023/06/05 00:38:00;;;;;;;12.20;11.73;;;15.10;99.90;;;;;;5044854;28;20514;-67
2023/06/05 00:40:27;;;;;;;11.70;11.30;;;15.10;99.90;;;;;;5043617;28;20475;-67
2023/06/05 00:42:53;;;;;;;11.50;11.10;;;15.10;99.90;;;;;;5041643;28;20456;-67
2023/06/05 00:45:21;;;;;;;11.83;11.43;;;15.10;99.90;;;;;;5048192;28;20467;-67
2023/06/05 00:47:49;;;;;;;12.30;11.73;;;15.00;99.90;;;;;;5037200;28;20452;-67
2023/06/05 00:50:21;;;;;;;11.80;11.40;;;15.00;99.90;;;;;;5035379;28;20460;-68
2023/06/05 00:52:49;;;;;;;12.37;11.87;;;14.90;99.90;;;;;;5041003;28;20568;-66
2023/06/05 00:55:18;;;;;;;11.40;11.00;;;14.80;99.90;;;;;;5036032;28;20966;-67
2023/06/05 00:57:45;;;;;;;10.93;10.53;;;14.80;99.90;;;;;;5040873;28;21005;-67
2023/06/05 01:00:13;;;;;;;11.43;11.03;;;14.60;99.90;;;;;;5047794;28;20456;-67
2023/06/05 01:02:42;;;;;;;10.63;10.23;;;14.50;99.90;;;;;;5040929;28;20475;-67
2023/06/05 01:05:09;;;;;;;10.47;10.07;;;14.40;99.90;;;;;;5032097;28;20495;-67
2023/06/05 01:07:39;;;;;;;10.97;10.57;;;14.20;99.90;;;;;;5041985;28;20470;-67
2023/06/05 01:10:09;;;;;;;10.97;10.47;;;14.00;99.90;;;;;;5036288;28;20896;-67
2023/06/05 01:12:42;;;;;;;10.27;9.90;;;13.80;99.90;;;;;;5041249;28;20488;-67
2023/06/05 01:15:10;;;;;;;10.17;9.87;;;13.80;99.90;;;;;;5041885;28;20583;-67
2023/06/05 01:17:38;;;;;;;10.63;10.23;;;13.50;99.90;;;;;;5046385;28;20519;-67
2023/06/05 01:20:08;;;;;;;9.77;9.47;;;13.40;99.90;;;;;;5032707;28;21173;-66
2023/06/05 01:22:38;;;;;;;9.83;9.53;;;13.30;99.90;;;;;;5049648;28;20463;-67
2023/06/05 01:25:09;;;;;;;9.43;9.13;;;13.30;99.90;;;;;;5036885;28;20463;-67
2023/06/05 01:27:43;;;;;;;10.20;9.80;;;13.20;99.90;;;;;;5036521;28;20567;-66
2023/06/05 01:30:16;;;;;;;9.67;9.37;;;13.20;99.90;;;;;;5038508;28;20527;-67
2023/06/05 01:32:48;;;;;;;9.10;8.80;;;13.20;99.90;;;;;;5042778;28;20909;-67
2023/06/05 01:35:17;;;;;;;9.27;8.97;;;13.20;99.90;;;;;;5034317;28;21097;-67
2023/06/05 01:37:48;;;;;;;8.73;8.43;;;13.20;99.90;;;;;;5043050;28;20599;-67
2023/06/05 01:40:20;;;;;;;8.37;8.07;;;13.10;99.90;;;;;;5044159;28;20550;-66
2023/06/05 01:42:48;;;;;;;9.07;8.77;;;13.20;99.90;;;;;;5029542;28;20492;-67
2023/06/05 01:45:16;;;;;;;9.23;8.93;;;13.20;99.90;;;;;;5037878;28;20476;-66
2023/06/05 01:47:45;;;;;;;8.10;7.80;;;13.20;99.90;;;;;;5040709;28;20463;-67
2023/06/05 01:50:14;;;;;;;8.33;8.03;;;13.20;99.90;;;;;;5037699;28;20564;-67
2023/06/05 01:52:41;;;;;;;8.30;8.00;;;13.20;99.90;;;;;;5043413;28;20521;-68
2023/06/05 01:55:14;;;;;;;8.67;8.37;;;13.20;99.90;;;;;;5037200;28;20452;-67
2023/06/05 01:57:43;;;;;;;8.80;8.50;;;13.10;99.90;;;;;;5040532;28;20518;-67
2023/06/05 02:00:12;;;;;;;8.47;8.17;;;13.10;99.90;;;;;;5041196;28;20465;-67
2023/06/05 02:02:41;;;;;;;8.20;7.90;;;13.00;99.90;;;;;;5038803;28;20948;-68
2023/06/05 02:05:10;;;;;;;8.97;8.67;;;12.80;99.90;;;;;;5031778;28;20456;-68
2023/06/05 02:07:38;;;;;;;8.73;8.43;;;12.60;99.90;;;;;;5031090;28;20473;-67
2023/06/05 02:10:05;;;;;;;9.27;8.97;;;12.60;99.90;;;;;;5038857;28;20547;-69
2023/06/05 02:12:32;;;;;;;9.03;8.73;;;12.50;99.90;;;;;;5038146;28;20836;-69
2023/06/05 02:15:01;;;;;;;9.20;8.90;;;12.40;99.90;;;;;;5048656;28;20460;-69
2023/06/05 02:17:29;;;;;;;9.00;8.70;;;12.40;99.90;;;;;;5039542;28;20491;-68
2023/06/05 02:19:56;;;;;;;9.30;9.00;;;12.30;99.90;;;;;;5041952;28;20553;-68
2023/06/05 02:22:24;;;;;;;8.90;8.60;;;12.30;99.90;;;;;;5033859;28;20752;-68
2023/06/05 02:24:51;;;;;;;8.73;8.43;;;12.20;99.90;;;;;;5041575;28;20468;-69
2023/06/05 02:27:19;;;;;;;8.80;8.50;;;12.20;99.90;;;;;;5037749;28;20483;-69
2023/06/05 02:29:47;;;;;;;9.30;9.00;;;12.20;99.90;;;;;;5030042;28;20510;-68
2023/06/05 02:32:15;;;;;;;8.60;8.30;;;12.20;99.90;;;;;;5045435;28;20492;-69
2023/06/05 02:34:42;;;;;;;8.40;8.10;;;12.20;99.90;;;;;;5035837;28;20461;-68
2023/06/05 02:37:11;;;;;;;8.87;8.57;;;12.30;99.90;;;;;;5034976;28;20504;-69
2023/06/05 02:39:39;;;;;;;8.50;8.20;;;12.20;99.90;;;;;;5043327;28;20468;-70
2023/06/05 02:42:08;;;;;;;9.03;8.73;;;12.10;99.90;;;;;;5039964;28;20472;-69
2023/06/05 02:44:36;;;;;;;9.57;9.27;;;12.00;99.90;;;;;;5037677;28;20807;-69
2023/06/05 02:47:03;;;;;;;9.53;9.13;;;11.90;99.90;;;;;;5048284;28;20494;-68
2023/06/05 02:49:33;;;;;;;8.73;8.43;;;11.90;99.90;;;;;;5034490;28;20452;-68
2023/06/05 02:52:01;;;;;;;8.33;8.03;;;11.90;99.90;;;;;;5040925;28;20460;-69
2023/06/05 02:54:29;;;;;;;8.50;8.20;;;12.00;99.90;;;;;;5035210;28;20486;-69
2023/06/05 02:56:56;;;;;;;8.50;8.10;;;12.10;99.90;;;;;;5043577;28;20582;-68
2023/06/05 02:59:24;;;;;;;9.13;8.83;;;12.10;99.90;;;;;;5033238;28;20535;-68
2023/06/05 03:01:52;;;;;;;9.03;8.67;;;12.10;99.90;;;;;;5034299;28;20573;-69
2023/06/05 03:04:20;;;;;;;9.57;9.17;;;12.20;99.90;;;;;;5039496;28;20902;-69
2023/06/05 03:06:50;;;;;;;7.30;7.10;;;12.10;99.90;;;;;;5037292;28;20498;-69
2023/06/05 03:09:17;;;;;;;8.30;8.00;;;12.10;99.90;;;;;;5040452;28;20496;-68
2023/06/05 03:11:44;;;;;;;8.07;7.77;;;12.10;99.90;;;;;;5037532;28;20464;-69
2023/06/05 03:14:12;;;;;;;8.83;8.43;;;12.00;99.90;;;;;;5043038;28;20468;-69
2023/06/05 03:16:41;;;;;;;8.70;8.40;;;12.10;99.90;;;;;;5047622;28;20674;-68
2023/06/05 03:19:09;;;;;;;6.93;6.73;;;12.10;99.90;;;;;;5044689;28;20463;-69
2023/06/05 03:21:37;;;;;;;7.37;7.17;;;12.10;99.90;;;;;;5036655;28;20463;-68
2023/06/05 03:24:08;;;;;;;7.80;7.50;;;12.10;99.90;;;;;;5045934;28;20466;-69
2023/06/05 03:26:35;;;;;;;8.60;8.00;;;12.00;99.90;;;;;;5036109;28;21004;-69
2023/06/05 03:29:03;;;;;;;7.67;7.37;;;12.10;99.90;;;;;;5038311;28;20525;-69
2023/06/05 03:31:31;;;;;;;8.00;7.70;;;12.00;99.90;;;;;;5038229;28;20954;-69
2023/06/05 03:34:00;;;;;;;7.90;7.50;;;12.10;99.90;;;;;;5047509;28;20473;-69
2023/06/05 03:36:28;;;;;;;7.50;7.30;;;12.10;99.90;;;;;;5043369;28;20563;-68
2023/06/05 03:38:56;;;;;;;7.17;6.97;;;12.00;99.90;;;;;;5046837;28;20950;-68
2023/06/05 03:41:25;;;;;;;7.37;7.17;;;11.90;99.90;;;;;;5040558;28;20467;-67
2023/06/05 03:43:53;;;;;;;7.87;7.60;;;12.00;99.90;;;;;;5032223;28;20464;-68
2023/06/05 03:46:21;;;;;;;7.27;7.07;;;12.00;99.90;;;;;;5043342;28;20468;-69
2023/06/05 03:48:53;;;;;;;7.87;7.60;;;12.00;99.90;;;;;;5044939;28;20853;-68
2023/06/05 03:51:20;;;;;;;7.30;7.10;;;12.00;99.90;;;;;;5043702;28;20469;-69
2023/06/05 03:53:55;;;;;;;7.37;7.17;;;12.00;99.90;;;;;;5039570;28;20547;-69
2023/06/05 03:56:28;;;;;;;8.07;7.77;;;12.00;99.90;;;;;;5039187;28;20599;-70
2023/06/05 03:58:57;;;;;;;8.00;7.70;;;12.00;99.90;;;;;;5047865;28;20483;-68
2023/06/05 04:01:24;;;;;;;7.90;7.70;;;12.10;99.90;;;;;;5047365;28;20451;-68
2023/06/05 04:03:51;;;;;;;7.83;7.63;;;12.00;99.90;;;;;;5043019;28;20467;-69
2023/06/05 04:06:18;;;;;;;8.50;8.20;;;12.10;99.90;;;;;;5034787;28;20959;-69
2023/06/05 04:08:45;;;;;;;8.40;8.10;;;12.20;99.90;;;;;;5047139;28;20467;-68
2023/06/05 04:11:13;;;;;;;8.33;8.03;;;12.30;99.90;;;;;;5031887;28;20797;-68
2023/06/05 04:13:41;;;;;;;9.40;9.10;;;12.30;99.90;;;;;;5048425;28;20459;-68
2023/06/05 04:16:10;;;;;;;8.70;8.40;;;12.40;99.90;;;;;;5049840;28;20470;-68
2023/06/05 04:18:36;;;;;;;10.33;9.83;;;12.40;99.90;;;;;;5036031;28;20498;-69
2023/06/05 04:21:03;;;;;;;8.87;8.57;;;12.50;99.90;;;;;;5044986;28;20496;-68
2023/06/05 04:23:30;;;;;;;9.40;9.00;;;12.50;99.90;;;;;;5042525;28;20460;-69
2023/06/05 04:25:57;;;;;;;9.93;9.47;;;12.60;99.90;;;;;;5043954;28;20463;-69
2023/06/05 04:28:26;;;;;;;9.73;9.43;;;12.60;99.90;;;;;;5039478;28;20460;-70
2023/06/05 04:30:55;;;;;;;10.10;9.70;;;12.70;99.90;;;;;;5042677;28;20472;-69
2023/06/05 04:33:22;;;;;;;9.77;9.37;;;12.70;99.90;;;;;;5046322;28;21029;-69
2023/06/05 04:35:48;;;;;;;10.13;9.73;;;12.70;99.90;;;;;;5033511;28;20467;-68
2023/06/05 04:38:21;;;;;;;9.60;9.30;;;12.80;99.90;;;;;;5047338;28;20527;-68
2023/06/05 04:40:49;;;;;;;10.17;9.77;;;12.90;99.90;;;;;;5046836;28;20551;-69
2023/06/05 04:43:16;;;;;;;11.47;10.97;;;13.00;99.90;;;;;;5046998;28;20947;-69
2023/06/05 04:45:43;;;;;;;10.00;9.70;;;13.10;99.90;;;;;;5038294;28;20490;-69
2023/06/05 04:48:12;;;;;;;10.07;9.67;;;13.10;99.90;;;;;;5048865;28;20471;-68
2023/06/05 04:50:39;;;;;;;12.97;11.93;;;13.10;99.90;;;;;;5039914;28;20799;-68
2023/06/05 04:53:07;;;;;;;10.50;10.10;;;13.20;99.90;;;;;;5043195;28;20875;-69
2023/06/05 04:55:34;;;;;;;11.57;11.07;;;13.20;99.90;;;;;;5033608;28;20946;-70
2023/06/05 04:58:01;;;;;;;10.87;10.47;;;13.20;99.90;;;;;;5042214;28;20484;-69
2023/06/05 05:00:28;;;;;;;10.67;10.27;;;13.30;99.90;;;;;;5041035;28;20538;-69
2023/06/05 05:02:54;;;;;;;11.07;10.60;;;13.30;99.90;;;;;;5034171;28;20934;-69
2023/06/05 05:05:22;;;;;;;11.10;10.70;;;13.40;99.90;;;;;;5045257;28;20456;-68
2023/06/05 05:07:50;;;;;;;11.93;11.40;;;13.50;99.90;;;;;;5039378;28;20464;-68
2023/06/05 05:10:16;;;;;;;11.43;11.00;;;13.50;99.90;;;;;;5046337;28;20924;-69
2023/06/05 05:12:43;;;;;;;11.50;11.00;;;13.70;99.90;;;;;;5043113;28;20464;-69
2023/06/05 05:15:11;;;;;;;12.13;11.63;;;13.70;99.90;;;;;;5035663;28;20464;-68
2023/06/05 05:17:39;;;;;;;11.57;11.17;;;13.80;99.90;;;;;;5043143;28;20850;-69
2023/06/05 05:20:07;;;;;;;10.83;10.43;;;13.80;99.90;;;;;;5049609;28;20475;-69
2023/06/05 05:22:36;;;;;;;12.30;11.70;;;13.90;99.90;;;;;;5036289;28;20464;-68
2023/06/05 05:25:03;;;;;;;11.53;11.13;;;14.00;99.90;;;;;;5040160;28;20546;-68
2023/06/05 05:27:29;;;;;;;12.13;11.53;;;14.10;99.90;;;;;;5041963;28;20480;-68
2023/06/05 05:29:57;;;;;;;11.73;11.23;;;14.20;99.90;;;;;;5044766;28;20989;-68
2023/06/05 05:32:24;;;;;;;12.13;11.63;;;14.20;99.90;;;;;;5041329;28;20465;-66
2023/06/05 05:34:51;;;;;;;11.90;11.40;;;14.20;99.90;;;;;;5041017;28;20958;-67
2023/06/05 05:37:18;;;;;;;12.47;11.97;;;14.20;99.90;;;;;;5040495;28;20464;-67
2023/06/05 05:39:47;;;;;;;13.40;12.80;;;14.40;99.90;;;;;;5036331;28;20460;-67
2023/06/05 05:42:13;;;;;;;12.07;11.57;;;14.40;99.90;;;;;;5038921;28;20464;-66
2023/06/05 05:44:42;;;;;;;11.57;11.17;;;14.50;99.90;;;;;;5038970;28;20471;-66
2023/06/05 05:47:09;;;;;;;11.90;11.40;;;14.50;99.90;;;;;;5022742;28;20858;-67
2023/06/05 05:49:36;;;;;;;18.30;13.00;;;14.60;99.90;;;;;;5034656;28;20457;-67
2023/06/05 05:52:04;;;;;;;13.70;12.97;;;14.50;99.90;;;;;;5034785;28;20460;-67
2023/06/05 05:54:31;;;;;;;12.50;12.00;;;14.70;99.90;;;;;;5037457;28;20553;-66
2023/06/05 05:57:00;;;;;;;12.80;12.30;;;14.70;99.90;;;;;;5034105;28;20461;-67
2023/06/05 05:59:27;;;;;;;12.30;11.80;;;14.80;99.90;;;;;;5032940;28;20546;-67
2023/06/05 06:01:56;;;;;;;13.07;12.47;;;15.10;99.90;;;;;;5034939;28;20464;-66
2023/06/05 06:04:23;;;;;;;13.70;13.10;;;15.20;99.90;;;;;;5034015;28;20460;-67
2023/06/05 06:06:52;;;;;;;12.80;12.30;;;15.30;99.90;;;;;;5035912;28;20548;-67
2023/06/05 06:09:19;;;;;;;14.93;14.23;;;15.40;99.90;;;;;;5035469;28;20464;-67
2023/06/05 06:11:46;;;;;;;13.90;13.23;;;15.30;99.90;;;;;;5035162;28;20997;-67
2023/06/05 06:14:15;;;;;;;13.07;12.57;;;15.20;99.90;;;;;;5034787;28;20465;-67
2023/06/05 06:16:42;;;;;;;14.03;13.43;;;15.40;99.90;;;;;;5037628;28;20467;-68
2023/06/05 06:19:14;;;;;;;13.73;13.13;;;15.30;99.90;;;;;;5028073;28;20496;-67
2023/06/05 06:21:41;;;;;;;15.57;14.70;;;15.50;99.90;;;;;;5033439;28;21117;-67
2023/06/05 06:24:07;;;;;;;14.20;13.50;;;15.60;99.90;;;;;;5032731;28;20459;-67
2023/06/05 06:26:36;;;;;;;15.03;14.23;;;15.70;99.90;;;;;;5040583;28;21048;-67
2023/06/05 06:29:03;;;;;;;14.87;13.73;;;15.90;99.90;;;;;;5040337;28;20517;-67
2023/06/05 06:31:31;;;;;;;14.50;13.87;;;16.00;99.90;;;;;;5035583;28;20475;-66
2023/06/05 06:33:59;;;;;;;14.37;13.77;;;16.00;99.90;;;;;;5038169;28;20482;-67
2023/06/05 06:36:26;;;;;;;13.80;13.20;;;16.10;99.90;;;;;;5037817;28;20556;-67
2023/06/05 06:38:53;;;;;;;14.20;13.60;;;16.10;99.90;;;;;;5042293;28;20841;-67
2023/06/05 06:41:21;;;;;;;15.70;14.87;;;16.20;99.90;;;;;;5040136;28;20467;-67
2023/06/05 06:43:48;;;;;;;14.40;13.80;;;16.40;99.90;;;;;;5038556;28;20489;-67
2023/06/05 06:46:15;;;;;;;13.97;13.33;;;16.40;99.90;;;;;;5036319;28;20470;-67
2023/06/05 06:48:43;;;;;;;13.50;12.90;;;16.50;99.90;;;;;;5040161;28;20460;-67
2023/06/05 06:51:10;;;;;;;13.40;12.90;;;16.50;99.90;;;;;;5037720;28;20472;-67
2023/06/05 06:53:38;;;;;;;14.20;13.60;;;16.70;99.90;;;;;;5038309;28;20563;-67
2023/06/05 06:56:05;;;;;;;15.83;14.43;;;16.70;99.90;;;;;;5036018;28;21035;-68
2023/06/05 06:58:32;;;;;;;13.47;12.97;;;16.90;99.90;;;;;;5034990;28;20971;-67
2023/06/05 07:00:59;;;;;;;14.10;13.50;;;16.90;99.90;;;;;;5032212;28;21002;-67
2023/06/05 07:03:26;;;;;;;14.53;13.77;;;17.10;99.90;;;;;;5042350;28;20455;-67
2023/06/05 07:05:55;;;;;;;14.90;14.20;;;17.20;99.90;;;;;;5038105;28;20503;-67
2023/06/05 07:08:22;;;;;;;14.77;14.10;;;17.10;99.90;;;;;;5045143;28;20456;-67
2023/06/05 07:10:48;;;;;;;14.43;13.83;;;17.20;99.90;;;;;;5038537;28;20471;-67
2023/06/05 07:13:15;;;;;;;14.37;13.77;;;17.20;99.90;;;;;;5037139;28;20466;-67
2023/06/05 07:15:42;;;;;;;14.47;13.87;;;17.10;99.90;;;;;;5034791;28;20464;-67
2023/06/05 07:18:10;;;;;;;14.33;13.73;;;17.20;99.90;;;;;;5038020;28;20541;-67
2023/06/05 07:20:37;;;;;;;15.70;14.90;;;17.20;99.90;;;;;;5037043;28;20488;-67
2023/06/05 07:23:06;;;;;;;13.80;13.20;;;17.40;99.90;;;;;;5040054;28;20504;-67
2023/06/05 07:25:33;;;;;;;15.03;14.33;;;17.50;99.90;;;;;;5036984;28;20479;-66
2023/06/05 07:28:00;;;;;;;14.10;13.50;;;17.70;99.90;;;;;;5040667;28;20989;-67
2023/06/05 07:30:28;;;;;;;14.20;13.50;;;17.80;99.90;;;;;;5034228;28;20469;-68
2023/06/05 07:32:55;;;;;;;16.13;15.40;;;17.90;99.90;;;;;;5043062;28;20483;-67
2023/06/05 07:35:23;;;;;;;14.30;13.70;;;18.10;99.90;;;;;;5045884;28;20542;-67
2023/06/05 07:38:05;;;;;;;14.60;14.00;;;18.20;99.90;;;;;;5044882;28;20491;-68
2023/06/05 07:40:33;;;;;;;15.97;14.63;;;18.30;99.90;;;;;;5034480;28;20467;-67
2023/06/05 07:43:00;;;;;;;15.30;14.57;;;18.40;99.90;;;;;;5033294;28;20463;-68
2023/06/05 07:45:27;;;;;;;15.60;14.90;;;18.50;99.90;;;;;;5042506;28;20492;-68
2023/06/05 07:47:54;;;;;;;14.20;13.60;;;18.70;99.90;;;;;;5042396;28;20832;-68
2023/06/05 07:50:22;;;;;;;14.43;13.83;;;18.90;99.90;;;;;;5037600;28;21164;-67
2023/06/05 07:52:49;;;;;;;30.97;14.97;;;18.90;99.90;;;;;;5040294;28;20464;-68
2023/06/05 07:55:17;;;;;;;15.60;14.80;;;19.10;99.90;;;;;;5038175;28;20473;-67
2023/06/05 07:57:45;;;;;;;14.30;13.70;;;19.20;99.90;;;;;;5041368;28;20534;-68
2023/06/05 08:00:13;;;;;;;14.77;14.17;;;19.20;99.90;;;;;;5035695;28;20541;-67
2023/06/05 08:02:41;;;;;;;14.70;13.90;;;19.30;99.90;;;;;;5035015;28;20818;-68
2023/06/05 08:05:09;;;;;;;14.40;13.80;;;19.70;99.90;;;;;;5038026;28;20458;-68
2023/06/05 08:07:35;;;;;;;14.90;14.30;;;20.30;99.90;;;;;;5037625;28;20468;-68
2023/06/05 08:10:02;;;;;;;14.70;14.10;;;20.90;99.90;;;;;;5033307;28;20461;-68
2023/06/05 08:12:30;;;;;;;15.60;14.80;;;21.80;99.90;;;;;;5036379;28;20472;-68
2023/06/05 08:14:58;;;;;;;15.57;14.77;;;22.30;99.90;;;;;;5032898;28;20463;-68
2023/06/05 08:17:25;;;;;;;15.37;14.70;;;22.50;99.90;;;;;;5037388;28;20558;-68
2023/06/05 08:19:52;;;;;;;17.60;16.03;;;22.90;99.90;;;;;;5035365;28;20492;-68
2023/06/05 08:22:20;;;;;;;15.73;15.03;;;23.00;99.90;;;;;;5037762;28;20469;-68
2023/06/05 08:24:49;;;;;;;15.93;14.77;;;23.30;99.90;;;;;;5037468;28;20536;-68
2023/06/05 08:27:17;;;;;;;16.10;15.40;;;23.30;99.90;;;;;;5036091;28;20462;-68
2023/06/05 08:29:44;;;;;;;15.40;14.70;;;23.30;99.90;;;;;;5035825;28;20495;-68
2023/06/05 08:32:12;;;;;;;15.97;15.20;;;23.70;99.90;;;;;;5037677;28;20983;-68
2023/06/05 08:34:39;;;;;;;16.00;15.20;;;24.20;99.90;;;;;;5037142;28;20476;-68
2023/06/05 08:37:06;;;;;;;15.43;14.77;;;24.70;99.70;;;;;;5036464;28;20460;-68
2023/06/05 08:39:33;;;;;;;16.80;15.60;;;25.20;97.40;;;;;;5037543;28;20542;-69
2023/06/05 08:42:03;;;;;;;15.20;14.60;;;25.30;94.40;;;;;;5036383;28;20488;-68
2023/06/05 08:44:30;;;;;;;15.57;14.87;;;24.60;94.50;;;;;;5038285;28;20956;-69
2023/06/05 08:47:00;;;;;;;16.43;15.73;;;24.50;95.80;;;;;;5034685;28;20465;-67
2023/06/05 08:49:30;;;;;;;15.47;14.80;;;25.20;95.50;;;;;;5036376;28;20473;-67
2023/06/05 08:52:02;;;;;;;15.43;14.77;;;25.10;94.90;;;;;;5033766;28;20498;-67
2023/06/05 08:54:31;;;;;;;16.47;15.77;;;25.50;94.50;;;;;;5033027;28;20444;-67
2023/06/05 08:56:58;;;;;;;16.40;15.60;;;26.00;92.50;;;;;;5037312;28;20457;-67
2023/06/05 08:59:26;;;;;;;16.60;15.33;;;26.20;92.80;;;;;;5033738;28;20565;-69
2023/06/05 09:01:53;;;;;;;15.00;14.40;;;25.50;92.50;;;;;;5036173;28;20468;-67
2023/06/05 09:04:20;;;;;;;22.23;20.67;;;26.10;92.50;;;;;;5035645;28;20634;-67
2023/06/05 09:06:51;;;;;;;15.40;14.70;;;25.60;92.40;;;;;;5035348;28;20887;-67
2023/06/05 09:09:19;;;;;;;15.33;14.63;;;25.90;91.90;;;;;;5034421;28;20908;-67
2023/06/05 09:11:46;;;;;;;16.30;15.10;;;25.50;91.10;;;;;;5034964;28;20987;-67
2023/06/05 09:14:13;;;;;;;16.10;15.40;;;25.10;93.30;;;;;;5037672;28;20464;-67
2023/06/05 09:16:42;;;;;;;16.03;15.33;;;25.70;91.50;;;;;;5036943;28;20986;-67
2023/06/05 09:19:10;;;;;;;15.37;14.67;;;26.30;90.00;;;;;;5035228;28;20893;-67
2023/06/05 09:21:38;;;;;;;16.60;15.80;;;26.70;90.30;;;;;;5036477;28;20461;-67
2023/06/05 09:24:16;;;;;;;15.40;14.73;;;26.50;90.70;;;;;;5029948;28;20914;-68
2023/06/05 09:26:57;;;;;;;16.00;15.30;;;26.00;90.90;;;;;;5036096;28;20495;-68
2023/06/05 09:29:25;;;;;;;15.70;14.80;;;25.70;90.90;;;;;;5039955;28;20535;-68
2023/06/05 09:31:53;;;;;;;16.23;15.43;;;26.10;91.00;;;;;;5034537;28;20470;-68
2023/06/05 09:34:24;;;;;;;15.53;14.73;;;26.20;91.20;;;;;;5037101;28;20487;-68
2023/06/05 09:36:51;;;;;;;14.80;14.20;;;26.00;92.20;;;;;;5033878;28;20471;-67
2023/06/05 09:39:21;;;;;;;17.97;17.07;;;25.90;91.50;;;;;;5030390;28;20503;-67
2023/06/05 09:41:51;;;;;;;15.47;14.77;;;26.30;91.50;;;;;;5033695;28;20552;-68
2023/06/05 09:44:19;;;;;;;15.20;14.47;;;26.10;90.00;;;;;;5036674;28;20901;-68
2023/06/05 09:46:57;;;;;;;18.77;17.27;;;26.10;90.30;;;;;;5035809;28;20493;-68
2023/06/05 09:49:26;;;;;;;14.90;14.30;;;26.60;90.70;;;;;;5041751;28;20551;-68
2023/06/05 09:51:53;;;;;;;16.00;15.30;;;26.70;91.10;;;;;;5037341;28;20460;-68
2023/06/05 09:54:23;;;;;;;14.87;14.27;;;26.80;89.00;;;;;;5035069;28;20467;-68
2023/06/05 09:56:51;;;;;;;16.40;15.60;;;26.40;90.70;;;;;;5038405;28;20804;-67
2023/06/05 09:59:24;;;;;;;15.20;14.53;;;26.50;90.10;;;;;;5033389;28;20491;-68
2023/06/05 10:01:52;;;;;;;16.00;15.30;;;26.60;90.80;;;;;;5033737;28;20474;-68
2023/06/05 10:04:22;;;;;;;15.53;14.83;;;26.80;90.00;;;;;;5037000;28;20456;-68
2023/06/05 10:06:51;;;;;;;16.07;15.30;;;27.10;90.30;;;;;;5036133;28;20460;-68
2023/06/05 10:09:20;;;;;;;17.30;16.20;;;27.30;81.20;;;;;;5030223;28;20815;-68
2023/06/05 10:11:51;;;;;;;15.80;15.10;;;27.30;82.10;;;;;;5033374;28;20463;-68
2023/06/05 10:14:19;;;;;;;15.70;15.00;;;27.60;80.60;;;;;;5040658;28;20884;-68
2023/06/05 10:16:50;;;;;;;16.23;15.53;;;28.00;80.80;;;;;;5042036;28;20955;-68
2023/06/05 10:19:19;;;;;;;15.67;14.93;;;27.80;80.50;;;;;;5031697;28;20602;-68
2023/06/05 10:21:48;;;;;;;16.30;15.50;;;27.80;78.40;;;;;;5033517;28;20467;-69
2023/06/05 10:24:19;;;;;;;15.10;14.50;;;27.60;77.50;;;;;;5033530;28;20556;-68
2023/06/05 10:27:20;;;;;;;15.23;14.63;;;28.10;77.70;;;;;;5039839;28;20543;-68
2023/06/05 10:30:15;;;;;;;15.63;14.83;;;28.30;76.10;;;;;;5039073;28;20485;-68
2023/06/05 10:32:53;;;;;;;14.80;14.20;;;27.80;76.30;;;;;;5019357;28;20517;-67
2023/06/05 10:35:34;;;;;;;14.63;14.03;;;27.40;79.40;;;;;;5034704;28;20497;-68
2023/06/05 10:38:16;;;;;;;15.40;14.80;;;27.80;80.00;;;;;;5035871;28;20467;-67
2023/06/05 10:40:43;;;;;;;15.70;14.90;;;28.80;77.20;;;;;;5035931;28;20487;-68
2023/06/05 10:43:31;;;;;;;16.33;15.60;;;28.90;70.50;;;;;;5041010;28;20460;-68
2023/06/05 10:45:59;;;;;;;15.47;14.77;;;29.20;72.60;;;;;;5029434;28;20452;-68
2023/06/05 10:49:04;;;;;;;15.17;14.47;;;29.00;69.20;;;;;;5027404;28;20479;-68
2023/06/05 10:51:37;;;;;;;15.17;14.57;;;28.20;67.10;;;;;;5038362;28;20491;-68
2023/06/05 10:54:06;;;;;;;16.93;16.13;;;28.70;67.70;;;;;;5032020;28;20470;-68
2023/06/05 10:57:01;;;;;;;16.53;15.63;;;28.30;66.00;;;;;;5035357;28;20465;-68
2023/06/05 10:59:31;;;;;;;14.87;14.27;;;27.60;68.20;;;;;;4999487;28;20518;-68
2023/06/05 11:02:26;;;;;;;16.57;15.87;;;27.40;70.00;;;;;;5031870;28;20560;-68
2023/06/05 11:05:07;;;;;;;16.00;15.20;;;28.40;71.30;;;;;;5035350;28;20487;-68
2023/06/05 11:07:35;;;;;;;16.90;16.10;;;28.60;67.40;;;;;;5036698;28;20463;-68
2023/06/05 11:10:21;;;;;;;16.33;15.63;;;28.50;68.20;;;;;;5034986;28;21023;-68
2023/06/05 11:12:58;;;;;;;15.17;14.47;;;28.30;64.90;;;;;;5035660;28;20515;-68
2023/06/05 11:15:45;;;;;;;16.33;15.43;;;28.00;63.40;;;;;;5032926;28;20538;-68
2023/06/05 11:18:30;;;;;;;15.30;14.60;;;28.70;64.60;;;;;;5032967;28;20468;-68
2023/06/05 11:20:58;;;;;;;15.27;14.67;;;29.30;63.30;;;;;;5034929;28;20874;-68
2023/06/05 11:23:27;;;;;;;16.03;15.30;;;29.70;64.60;;;;;;5034087;28;21481;-68
2023/06/05 11:25:57;;;;;;;14.80;14.20;;;29.20;62.50;;;;;;5028073;28;20864;-68
2023/06/05 11:28:41;;;;;;;14.97;14.37;;;29.00;63.80;;;;;;5030663;28;21218;-68
2023/06/05 11:31:10;;;;;;;15.20;14.60;;;29.30;64.20;;;;;;5034471;28;20471;-68
2023/06/05 11:33:37;;;;;;;15.80;15.00;;;29.90;63.90;;;;;;5042066;28;20558;-69
2023/06/05 11:36:06;;;;;;;16.10;15.37;;;30.30;62.50;;;;;;5036456;28;20464;-68
2023/06/05 11:38:34;;;;;;;15.20;14.60;;;30.00;57.10;;;;;;5036861;28;20468;-68
2023/06/05 11:41:06;;;;;;;15.67;14.90;;;30.50;58.20;;;;;;5031433;28;20847;-68
2023/06/05 11:43:33;;;;;;;14.80;14.20;;;30.30;56.30;;;;;;5037322;28;20478;-69
2023/06/05 11:46:00;;;;;;;14.70;14.10;;;30.20;55.80;;;;;;5034689;28;20474;-68
2023/06/05 11:48:31;;;;;;;15.00;14.30;;;30.70;54.40;;;;;;5032205;28;20468;-68
2023/06/05 11:51:00;;;;;;;13.73;13.23;;;31.50;54.60;;;;;;5041932;28;20471;-69
2023/06/05 11:53:28;;;;;;;14.10;13.23;;;31.50;54.70;;;;;;5039178;28;20504;-68
2023/06/05 11:56:06;;;;;;;14.10;13.60;;;32.00;53.20;;;;;;5037395;28;20835;-68
2023/06/05 11:58:38;;;;;;;14.47;13.63;;;32.50;51.20;;;;;;5036896;28;20503;-69
2023/06/05 12:01:06;;;;;;;15.00;14.40;;;33.10;51.00;;;;;;5038095;28;20837;-68
2023/06/05 12:03:35;;;;;;;13.77;13.27;;;33.50;51.80;;;;;;5039768;28;20461;-68
2023/06/05 12:06:03;;;;;;;16.20;15.43;;;33.30;48.70;;;;;;5037023;28;20460;-68
2023/06/05 12:08:32;;;;;;;15.10;14.30;;;32.90;47.80;;;;;;5037936;28;20567;-68
2023/06/05 12:10:59;;;;;;;14.77;14.17;;;33.20;48.50;;;;;;5038942;28;20464;-68
2023/06/05 12:13:48;;;;;;;15.10;14.40;;;33.20;48.90;;;;;;5037296;28;20468;-69
2023/06/05 12:16:15;;;;;;;15.47;14.63;;;33.10;46.70;;;;;;5036266;28;20454;-68
2023/06/05 12:18:44;;;;;;;14.60;14.00;;;32.20;45.70;;;;;;5039896;28;20455;-68
2023/06/05 12:21:21;;;;;;;15.40;14.03;;;31.90;47.00;;;;;;5035826;28;21013;-69
2023/06/05 12:23:49;;;;;;;14.97;14.37;;;31.70;49.30;;;;;;5037591;28;20452;-68
2023/06/05 12:26:17;;;;;;;14.50;13.90;;;31.60;50.00;;;;;;5039646;28;20491;-68
2023/06/05 12:28:46;;;;;;;14.53;13.93;;;31.40;49.80;;;;;;5033452;28;20538;-68
2023/06/05 12:31:35;;;;;;;14.70;14.10;;;31.90;50.90;;;;;;5040301;28;20509;-69
2023/06/05 12:34:04;;;;;;;16.03;15.20;;;31.50;46.30;;;;;;5036144;28;20511;-68
2023/06/05 12:36:32;;;;;;;13.90;13.40;;;31.10;47.30;;;;;;5032896;28;20760;-69
2023/06/05 12:39:05;;;;;;;14.63;14.03;;;30.90;47.40;;;;;;5039103;28;20463;-69
2023/06/05 12:41:32;;;;;;;14.33;13.73;;;31.40;48.20;;;;;;5035577;28;20544;-69
2023/06/05 12:44:04;;;;;;;14.27;13.67;;;32.10;48.10;;;;;;5041332;28;20467;-68